Greenbrier Valley Airport Lewisburg US
ICAO: KLWB
IATA: LWB
Category: Medium
Scheduled Services: No

Elevation: 2302 ft
TransAlt. 18000 ft.

Airport Communications:
AWOS 3:121.4
CLNC DEL:120.85
WASHINGTON CNTR:134.4
CTAF:118.9
GND:121.9
LEWISBURG TWR:118.9
UNICOM:122.95

KLWB Zoom In..

Runways:

(A) RW 04 length 7003 ft width 150 ft
ILS 110.35 / hdg 43

(B) RW 22 length 7003 ft width 150 ft
---- / hdg 223

Location; KLWB
Day. 23 / Time. 03.15 Zulu
* Altimeter: 29.92
* Temperature: 20° c. 68°f.
* Wind from: 000° Speed 00 kn.
Dewpoint: 18° c.
Visibility: 10 Statute Miles.
Clouds: Broken 1500 ft.
Clouds: Overcast 2100 ft.

KLWB 230315Z AUTO 00000KT 10SM BKN015 OVC021 20/18 A2992 RMK AO2 LTG DSNT S T01990181


Wind - Calm.

 
 
jpsmedia.com for Web Design worldairports.se 2018   terms of use